createdAt,value
2022-08-25T00:00:17.547Z,99353.78
2022-08-25T00:03:05.075Z,99361.47
2022-08-25T00:05:33.854Z,99363.47
2022-08-25T00:08:03.431Z,99363.75
2022-08-25T00:10:34.846Z,99356.88
2022-08-25T00:13:04.770Z,99361.97
2022-08-25T00:15:33.815Z,99358.09
2022-08-25T00:18:02.916Z,99356.94
2022-08-25T00:20:32.544Z,99348.88
2022-08-25T00:23:01.567Z,99348.16
2022-08-25T00:25:30.057Z,99345.13
2022-08-25T00:28:03.071Z,99342.31
2022-08-25T00:30:36.778Z,99332.44
2022-08-25T00:33:05.803Z,99330.00
2022-08-25T00:35:34.576Z,99316.72
2022-08-25T00:38:03.528Z,99318.91
2022-08-25T00:40:32.430Z,99319.84
2022-08-25T00:43:02.811Z,99319.41
2022-08-25T00:45:31.429Z,99314.81
2022-08-25T00:48:00.240Z,99319.25
2022-08-25T00:50:30.545Z,99319.34
2022-08-25T00:53:03.264Z,99315.41
2022-08-25T00:55:35.574Z,99318.69
2022-08-25T00:58:11.623Z,99306.38
2022-08-25T01:00:44.188Z,99316.16
2022-08-25T01:03:13.800Z,99308.22
2022-08-25T01:05:44.748Z,99311.00
2022-08-25T01:08:16.375Z,99317.28
2022-08-25T01:10:46.549Z,99312.41
2022-08-25T01:13:20.426Z,99306.72
2022-08-25T01:15:53.811Z,99313.22
2022-08-25T01:18:23.290Z,99313.66
2022-08-25T01:20:54.092Z,99318.34
2022-08-25T01:23:23.999Z,99315.88
2022-08-25T01:26:01.229Z,99317.78
2022-08-25T01:28:30.091Z,99311.03
2022-08-25T01:30:58.872Z,99310.50
2022-08-25T01:33:27.310Z,99304.50
2022-08-25T01:35:57.109Z,99301.94
2022-08-25T01:38:25.773Z,99307.38
2022-08-25T01:40:54.193Z,99313.38
2022-08-25T01:43:31.587Z,99317.97
2022-08-25T01:46:00.360Z,99315.00
2022-08-25T01:48:28.837Z,99311.69
2022-08-25T01:50:58.632Z,99318.75
2022-08-25T01:53:29.942Z,99316.81
2022-08-25T01:56:10.231Z,99318.38
2022-08-25T01:58:40.778Z,99322.78
2022-08-25T02:01:12.531Z,99316.13
2022-08-25T02:03:42.977Z,99325.47
2022-08-25T02:06:15.061Z,99315.59
2022-08-25T02:08:44.801Z,99306.91
2022-08-25T02:11:14.109Z,99308.75
2022-08-25T02:13:43.675Z,99312.03
2022-08-25T02:16:18.267Z,99310.41
2022-08-25T02:18:47.254Z,99307.56
2022-08-25T02:21:17.645Z,99304.00
2022-08-25T02:23:46.507Z,99294.38
2022-08-25T02:26:16.849Z,99293.69
2022-08-25T02:28:47.044Z,99295.19
2022-08-25T02:31:16.514Z,99296.25
2022-08-25T02:33:45.300Z,99286.09
2022-08-25T02:36:13.997Z,99287.59
2022-08-25T02:38:44.064Z,99294.75
2022-08-25T02:41:16.728Z,99293.34
2022-08-25T02:43:46.780Z,99293.16
2022-08-25T02:46:15.786Z,99294.22
2022-08-25T02:48:44.556Z,99301.38
2022-08-25T02:51:13.756Z,99302.66
2022-08-25T02:53:45.959Z,99305.69
2022-08-25T02:56:16.720Z,99303.75
2022-08-25T02:58:46.271Z,99304.25
2022-08-25T03:01:16.503Z,99309.13
2022-08-25T03:03:47.376Z,99316.38
2022-08-25T03:06:19.779Z,99318.09
2022-08-25T03:08:50.684Z,99316.34
2022-08-25T03:11:19.299Z,99327.06
2022-08-25T03:13:50.095Z,99332.41
2022-08-25T03:16:19.529Z,99331.56
2022-08-25T03:18:48.340Z,99326.09
2022-08-25T03:21:18.160Z,99324.16
2022-08-25T03:23:46.940Z,99327.91
2022-08-25T03:26:30.742Z,99327.47
2022-08-25T03:28:59.957Z,99334.63
2022-08-25T03:31:28.772Z,99320.09
2022-08-25T03:33:57.484Z,99326.94
2022-08-25T03:36:26.599Z,99314.56
2022-08-25T03:38:55.688Z,99314.97
2022-08-25T03:41:29.187Z,99316.91
2022-08-25T03:43:58.630Z,99326.09
2022-08-25T03:46:29.920Z,99326.63
2022-08-25T03:49:01.482Z,99331.97
2022-08-25T03:51:34.677Z,99335.50
2022-08-25T03:54:05.172Z,99334.34
2022-08-25T03:56:35.051Z,99338.56
2022-08-25T03:59:03.892Z,99333.38
2022-08-25T04:01:32.843Z,99334.31
2022-08-25T04:04:01.359Z,99331.41
2022-08-25T04:06:29.868Z,99334.22
2022-08-25T04:08:59.764Z,99316.66
2022-08-25T04:11:29.198Z,99322.09
2022-08-25T04:14:02.433Z,99325.38
2022-08-25T04:16:33.362Z,99329.50
2022-08-25T04:19:04.828Z,99333.19
2022-08-25T04:21:33.715Z,99322.28
2022-08-25T04:24:02.413Z,99321.47
2022-08-25T04:26:33.392Z,99320.75
2022-08-25T04:29:05.477Z,99322.75
2022-08-25T04:31:35.178Z,99318.22
2022-08-25T04:34:13.466Z,99319.38
2022-08-25T04:36:54.192Z,99322.63
2022-08-25T04:39:23.011Z,99318.34
2022-08-25T04:41:52.489Z,99314.25
2022-08-25T04:44:22.276Z,99330.13
2022-08-25T04:46:51.053Z,99325.06
2022-08-25T04:49:19.774Z,99331.72
2022-08-25T04:51:48.309Z,99330.59
2022-08-25T04:54:21.659Z,99328.63
2022-08-25T04:56:54.044Z,99330.25
2022-08-25T04:59:30.271Z,99313.19
2022-08-25T05:02:02.661Z,99325.13
2022-08-25T05:04:33.321Z,99319.44
2022-08-25T05:07:02.877Z,99318.28
2022-08-25T05:09:32.024Z,99313.25
2022-08-25T05:12:02.863Z,99312.44
2022-08-25T05:14:33.312Z,99314.75
2022-08-25T05:17:02.871Z,99309.63
2022-08-25T05:19:31.737Z,99318.06
2022-08-25T05:22:00.537Z,99307.69
2022-08-25T05:24:29.656Z,99313.34
2022-08-25T05:26:58.799Z,99319.03
2022-08-25T05:29:27.414Z,99323.63
2022-08-25T05:31:57.539Z,99328.75
2022-08-25T05:34:26.022Z,99332.19
2022-08-25T05:36:54.688Z,99325.44
2022-08-25T05:39:23.329Z,99329.75
2022-08-25T05:41:55.326Z,99323.72
2022-08-25T05:44:23.777Z,99327.16
2022-08-25T05:46:52.539Z,99327.06
2022-08-25T05:49:22.349Z,99325.03
2022-08-25T05:51:50.782Z,99318.94
2022-08-25T05:54:19.754Z,99319.31
2022-08-25T05:56:48.283Z,99326.84
2022-08-25T05:59:16.679Z,99325.09
2022-08-25T06:02:03.424Z,99314.59
2022-08-25T06:04:33.570Z,99324.06
2022-08-25T06:07:02.459Z,99328.13
2022-08-25T06:09:30.933Z,99319.34
2022-08-25T06:11:59.340Z,99320.69
2022-08-25T06:14:27.963Z,99319.41
2022-08-25T06:16:56.955Z,99321.00
2022-08-25T06:19:25.356Z,99320.56
2022-08-25T06:21:59.028Z,99316.63
2022-08-25T06:24:29.250Z,99327.13
2022-08-25T06:26:58.174Z,99327.72
2022-08-25T06:29:27.455Z,99319.81
2022-08-25T06:31:55.961Z,99317.69
2022-08-25T06:34:24.705Z,99322.00
2022-08-25T06:36:54.026Z,99325.66
2022-08-25T06:39:24.292Z,99321.75
2022-08-25T06:41:54.011Z,99323.22
2022-08-25T06:44:22.945Z,99323.34
2022-08-25T06:46:51.985Z,99326.22
2022-08-25T06:49:21.504Z,99326.06
2022-08-25T06:51:50.638Z,99329.44
2022-08-25T06:54:19.097Z,99328.56
2022-08-25T06:56:49.679Z,99323.19
2022-08-25T06:59:19.167Z,99323.56
2022-08-25T07:01:50.113Z,99330.22
2022-08-25T07:04:19.056Z,99326.66
2022-08-25T07:06:48.207Z,99328.03
2022-08-25T07:09:16.924Z,99334.97
2022-08-25T07:11:46.478Z,99338.88
2022-08-25T07:14:18.975Z,99327.16
2022-08-25T07:16:50.290Z,99336.66
2022-08-25T07:19:21.010Z,99333.75
2022-08-25T07:21:54.202Z,99331.25
2022-08-25T07:24:23.886Z,99323.94
2022-08-25T07:26:53.298Z,99326.59
2022-08-25T07:29:32.306Z,99331.56
2022-08-25T07:32:02.792Z,99327.31
2022-08-25T07:34:52.405Z,99324.81
2022-08-25T07:37:47.583Z,99319.91
2022-08-25T07:40:14.703Z,99324.25
2022-08-25T07:42:43.466Z,99324.66
2022-08-25T07:45:15.522Z,99330.38
2022-08-25T07:47:47.187Z,99332.66
2022-08-25T07:50:15.645Z,99325.88
2022-08-25T07:52:44.110Z,99325.88
2022-08-25T07:55:21.380Z,99329.78
2022-08-25T07:57:55.358Z,99319.97
2022-08-25T08:00:30.176Z,99319.13
2022-08-25T08:02:59.105Z,99310.41
2022-08-25T08:05:28.357Z,99316.41
2022-08-25T08:07:57.397Z,99306.88
2022-08-25T08:10:47.791Z,99308.34
2022-08-25T08:13:18.403Z,99313.66
2022-08-25T08:15:49.072Z,99305.00
2022-08-25T08:18:18.371Z,99307.06
2022-08-25T08:20:48.224Z,99297.56
2022-08-25T08:23:17.896Z,99307.25
2022-08-25T08:25:46.538Z,99305.59
2022-08-25T08:28:15.173Z,99297.25
2022-08-25T08:30:52.938Z,99296.53
2022-08-25T08:33:25.581Z,99294.38
2022-08-25T08:36:05.661Z,99295.03
2022-08-25T08:38:35.149Z,99293.94
2022-08-25T08:41:40.133Z,99298.22
2022-08-25T08:44:29.393Z,99290.53
2022-08-25T08:47:09.125Z,99293.88
2022-08-25T08:49:49.431Z,99293.75
2022-08-25T08:52:21.277Z,99288.91
2022-08-25T08:54:56.890Z,99284.94
2022-08-25T08:57:29.449Z,99286.09
2022-08-25T09:00:03.022Z,99284.66
2022-08-25T09:02:51.665Z,99288.63
2022-08-25T09:05:28.761Z,99285.66
2022-08-25T09:07:59.403Z,99283.72
2022-08-25T09:10:40.604Z,99286.84
2022-08-25T09:13:19.932Z,99293.25
2022-08-25T09:16:23.317Z,99291.97
2022-08-25T09:19:23.508Z,99296.22
2022-08-25T09:22:02.568Z,99283.53
2022-08-25T09:24:58.468Z,99288.16
2022-08-25T09:27:38.177Z,99280.72
2022-08-25T09:30:12.296Z,99276.25
2022-08-25T09:32:48.982Z,99275.94
2022-08-25T09:35:26.178Z,99273.00
2022-08-25T09:38:02.226Z,99254.84
2022-08-25T09:40:34.976Z,99272.34
2022-08-25T09:43:18.980Z,99265.81
2022-08-25T09:45:50.342Z,99257.41
2022-08-25T09:48:26.977Z,99260.09
2022-08-25T09:51:02.419Z,99255.09
2022-08-25T09:53:34.801Z,99251.38
2022-08-25T09:56:07.504Z,99244.00
2022-08-25T09:58:36.417Z,99249.84
2022-08-25T10:01:16.913Z,99251.00
2022-08-25T10:04:01.030Z,99241.34
2022-08-25T10:06:36.370Z,99245.38
2022-08-25T10:09:08.357Z,99235.56
2022-08-25T10:11:43.496Z,99239.56
2022-08-25T10:14:23.028Z,99234.13
2022-08-25T10:16:54.613Z,99232.06
2022-08-25T10:19:27.165Z,99223.94
2022-08-25T10:22:08.329Z,99222.56
2022-08-25T10:24:43.997Z,99213.78
2022-08-25T10:27:25.433Z,99209.22
2022-08-25T10:30:15.427Z,99207.25
2022-08-25T10:33:01.956Z,99207.81
2022-08-25T10:35:41.686Z,99214.56
2022-08-25T10:38:27.217Z,99206.25
2022-08-25T10:41:11.143Z,99204.44
2022-08-25T10:43:50.416Z,99197.06
2022-08-25T10:46:32.924Z,99199.59
2022-08-25T10:49:05.683Z,99207.22
2022-08-25T10:51:52.081Z,99205.03
2022-08-25T10:54:33.429Z,99200.16
2022-08-25T10:57:18.317Z,99208.19
2022-08-25T11:00:05.093Z,99199.97
2022-08-25T11:03:02.490Z,99195.13
2022-08-25T11:05:36.837Z,99195.75
2022-08-25T11:08:11.997Z,99191.06
2022-08-25T11:10:45.914Z,99189.31
2022-08-25T11:13:25.973Z,99191.84
2022-08-25T11:16:19.123Z,99182.91
2022-08-25T11:18:55.664Z,99181.03
2022-08-25T11:21:34.891Z,99174.66
2022-08-25T11:24:16.989Z,99167.69
2022-08-25T11:26:53.173Z,99167.31
2022-08-25T11:29:28.114Z,99161.94
2022-08-25T11:32:01.209Z,99163.63
2022-08-25T11:34:33.918Z,99151.47
2022-08-25T11:37:11.267Z,99158.41
2022-08-25T11:40:03.020Z,99155.16
2022-08-25T11:42:43.053Z,99145.66
2022-08-25T11:45:45.645Z,99140.19
2022-08-25T11:48:25.038Z,99145.25
2022-08-25T11:51:03.006Z,99136.31
2022-08-25T11:53:35.603Z,99136.31
2022-08-25T11:56:09.499Z,99136.22
2022-08-25T11:58:47.774Z,99138.28
2022-08-25T12:01:51.841Z,99139.09
2022-08-25T12:04:44.244Z,99127.00
2022-08-25T12:07:27.152Z,99118.22
2022-08-25T12:10:18.706Z,99140.38
2022-08-25T12:13:08.064Z,99128.28
2022-08-25T12:16:00.901Z,99118.03
2022-08-25T12:18:46.456Z,99108.25
2022-08-25T12:21:31.055Z,99106.31
2022-08-25T12:24:12.039Z,99099.91
2022-08-25T12:26:51.853Z,99104.56
2022-08-25T12:29:30.511Z,99093.38
2022-08-25T12:32:21.921Z,99091.59
2022-08-25T12:35:14.696Z,99102.84
2022-08-25T12:37:59.770Z,99097.66
2022-08-25T12:40:34.964Z,99095.38
2022-08-25T12:43:07.872Z,99097.06
2022-08-25T12:45:43.448Z,99095.81
2022-08-25T12:48:44.315Z,99098.94
2022-08-25T12:51:19.667Z,99100.44
2022-08-25T12:53:54.338Z,99099.84
2022-08-25T12:56:39.045Z,99098.66
2022-08-25T12:59:16.699Z,99103.66
2022-08-25T13:02:14.093Z,99111.06
2022-08-25T13:05:14.592Z,99100.41
2022-08-25T13:07:58.467Z,99105.06
2022-08-25T13:10:42.214Z,99102.44
2022-08-25T13:13:20.219Z,99103.19
2022-08-25T13:16:00.031Z,99092.66
2022-08-25T13:18:30.703Z,99092.78
2022-08-25T13:21:10.598Z,99088.97
2022-08-25T13:23:43.838Z,99096.41
2022-08-25T13:26:16.614Z,99097.75
2022-08-25T13:28:55.576Z,99091.94
2022-08-25T13:31:28.181Z,99087.75
2022-08-25T13:34:00.204Z,99087.28
2022-08-25T13:36:53.985Z,99082.41
2022-08-25T13:39:45.220Z,99072.81
2022-08-25T13:42:18.201Z,99075.06
2022-08-25T13:44:52.020Z,99071.69
2022-08-25T13:47:43.375Z,99064.69
2022-08-25T13:50:21.400Z,99069.31
2022-08-25T13:52:55.119Z,99060.28
2022-08-25T13:55:27.750Z,99059.31
2022-08-25T13:58:00.519Z,99056.94
2022-08-25T14:00:34.773Z,99055.78
2022-08-25T14:03:13.115Z,99052.25
2022-08-25T14:05:45.585Z,99053.16
2022-08-25T14:08:32.629Z,99044.22
2022-08-25T14:11:13.882Z,99038.88
2022-08-25T14:13:46.284Z,99044.59
2022-08-25T14:16:21.309Z,99040.16
2022-08-25T14:18:52.781Z,99037.84
2022-08-25T14:21:27.483Z,99032.41
2022-08-25T14:23:58.178Z,99030.13
2022-08-25T14:26:29.036Z,99026.16
2022-08-25T14:29:00.584Z,99022.56
2022-08-25T14:31:33.491Z,99020.47
2022-08-25T14:34:06.652Z,99019.44
2022-08-25T14:36:36.516Z,99019.06
2022-08-25T14:39:08.899Z,99019.72
2022-08-25T14:41:40.862Z,99014.41
2022-08-25T14:44:11.869Z,99010.81
2022-08-25T14:46:46.078Z,99014.25
2022-08-25T14:49:24.902Z,99015.72
2022-08-25T14:51:55.341Z,99021.84
2022-08-25T14:54:28.478Z,99014.38
2022-08-25T14:56:58.298Z,99018.88
2022-08-25T14:59:28.249Z,99026.94
2022-08-25T15:01:57.597Z,99018.34
2022-08-25T15:04:29.959Z,99010.97
2022-08-25T15:07:22.778Z,99019.94
2022-08-25T15:09:51.589Z,99022.63
2022-08-25T15:12:47.368Z,99015.38
2022-08-25T15:15:19.483Z,99016.41
2022-08-25T15:17:50.462Z,99014.16
2022-08-25T15:20:19.233Z,99013.63
2022-08-25T15:22:48.232Z,99019.28
2022-08-25T15:25:18.107Z,99018.97
2022-08-25T15:27:47.352Z,99008.66
2022-08-25T15:30:16.451Z,99014.94
2022-08-25T15:32:48.627Z,99007.94
2022-08-25T15:35:17.589Z,99010.00
2022-08-25T15:37:48.127Z,99001.16
2022-08-25T15:40:16.964Z,99000.19
2022-08-25T15:42:46.047Z,99002.31
2022-08-25T15:45:14.734Z,99001.47
2022-08-25T15:47:43.257Z,98998.78
2022-08-25T15:50:16.285Z,98990.56
2022-08-25T15:52:46.407Z,98988.50
2022-08-25T15:55:17.423Z,98989.94
2022-08-25T15:57:45.950Z,98986.00
2022-08-25T16:00:16.723Z,98984.91
2022-08-25T16:02:46.481Z,98984.22
2022-08-25T16:05:16.756Z,98982.41
2022-08-25T16:07:51.813Z,98986.88
2022-08-25T16:10:21.104Z,98984.22
2022-08-25T16:12:50.348Z,98985.81
2022-08-25T16:15:19.079Z,98983.88
2022-08-25T16:17:59.024Z,98978.00
2022-08-25T16:20:29.258Z,98982.28
2022-08-25T16:23:00.041Z,98981.97
2022-08-25T16:25:28.912Z,98978.44
2022-08-25T16:27:57.666Z,98980.13
2022-08-25T16:30:26.978Z,98975.63
2022-08-25T16:32:56.192Z,98973.38
2022-08-25T16:35:24.912Z,98980.31
2022-08-25T16:37:55.765Z,98979.09
2022-08-25T16:40:27.194Z,98977.50
2022-08-25T16:42:55.960Z,98980.31
2022-08-25T16:45:24.627Z,98975.44
2022-08-25T16:47:53.340Z,98978.53
2022-08-25T16:50:22.011Z,98981.78
2022-08-25T16:53:08.318Z,98976.44
2022-08-25T16:55:39.349Z,98979.78
2022-08-25T16:58:12.691Z,98979.91
2022-08-25T17:00:44.745Z,98983.91
2022-08-25T17:03:13.406Z,98986.72
2022-08-25T17:05:43.965Z,98988.44
2022-08-25T17:08:32.183Z,98987.28
2022-08-25T17:11:11.179Z,98982.91
2022-08-25T17:13:44.432Z,98988.72
2022-08-25T17:16:15.128Z,98988.28
2022-08-25T17:18:47.576Z,98997.16
2022-08-25T17:21:24.729Z,98992.34
2022-08-25T17:23:56.057Z,98996.78
2022-08-25T17:26:28.937Z,99003.72
2022-08-25T17:28:59.401Z,99002.38
2022-08-25T17:31:29.990Z,98997.09
2022-08-25T17:34:00.227Z,98993.56
2022-08-25T17:36:29.009Z,98993.75
2022-08-25T17:38:57.541Z,98990.38
2022-08-25T17:41:28.241Z,98997.78
2022-08-25T17:43:56.848Z,98998.97
2022-08-25T17:46:25.593Z,99001.00
2022-08-25T17:48:54.964Z,99000.81
2022-08-25T17:51:24.058Z,98993.34
2022-08-25T17:53:53.500Z,98996.91
2022-08-25T17:56:28.011Z,99011.78
2022-08-25T17:58:57.673Z,99011.94
2022-08-25T18:01:29.130Z,99014.47
2022-08-25T18:03:58.959Z,99013.72
2022-08-25T18:06:29.548Z,99007.47
2022-08-25T18:09:01.429Z,99007.84
2022-08-25T18:11:33.517Z,99017.25
2022-08-25T18:14:02.116Z,99021.44
2022-08-25T18:16:30.764Z,99029.56
2022-08-25T18:18:59.465Z,99025.50
2022-08-25T18:21:30.934Z,99031.22
2022-08-25T18:24:01.709Z,99023.25
2022-08-25T18:26:30.453Z,99025.47
2022-08-25T18:29:02.184Z,99016.16
2022-08-25T18:31:30.853Z,99027.44
2022-08-25T18:34:00.671Z,99020.31
2022-08-25T18:36:29.145Z,99018.94
2022-08-25T18:39:16.627Z,99025.38
2022-08-25T18:41:45.306Z,99029.47
2022-08-25T18:44:15.836Z,99028.31
2022-08-25T18:46:45.462Z,99036.88
2022-08-25T18:49:17.190Z,99031.28
2022-08-25T18:51:46.538Z,99031.59
2022-08-25T18:54:22.825Z,99033.22
2022-08-25T18:56:53.952Z,99033.22
2022-08-25T18:59:24.337Z,99035.63
2022-08-25T19:01:54.361Z,99033.53
2022-08-25T19:04:31.260Z,99029.06
2022-08-25T19:07:01.907Z,99031.28
2022-08-25T19:09:32.890Z,99033.78
2022-08-25T19:12:02.097Z,99028.53
2022-08-25T19:14:32.409Z,99027.47
2022-08-25T19:17:01.678Z,99030.78
2022-08-25T19:19:30.252Z,99036.69
2022-08-25T19:22:00.123Z,99040.84
2022-08-25T19:24:29.840Z,99037.44
2022-08-25T19:27:02.316Z,99036.78
2022-08-25T19:29:33.049Z,99035.81
2022-08-25T19:32:02.536Z,99041.53
2022-08-25T19:34:35.104Z,99041.22
2022-08-25T19:37:05.576Z,99037.53
2022-08-25T19:39:39.263Z,99041.59
2022-08-25T19:42:31.711Z,99042.63
2022-08-25T19:44:59.678Z,99043.59
2022-08-25T19:47:29.699Z,99047.16
2022-08-25T19:50:00.413Z,99048.78
2022-08-25T19:52:28.984Z,99045.66
2022-08-25T19:54:58.938Z,99049.38
2022-08-25T19:57:42.396Z,99043.50
2022-08-25T20:00:18.223Z,99044.50
2022-08-25T20:02:47.295Z,99040.88
2022-08-25T20:05:23.594Z,99037.63
2022-08-25T20:07:53.589Z,99045.69
2022-08-25T20:10:23.517Z,99043.69
2022-08-25T20:12:52.566Z,99034.00
2022-08-25T20:15:22.891Z,99030.22
2022-08-25T20:17:56.663Z,99036.59
2022-08-25T20:20:34.404Z,99033.56
2022-08-25T20:23:17.557Z,99036.97
2022-08-25T20:25:47.609Z,99034.03
2022-08-25T20:28:19.291Z,99041.59
2022-08-25T20:30:49.296Z,99036.22
2022-08-25T20:33:22.621Z,99040.81
2022-08-25T20:35:53.129Z,99039.22
2022-08-25T20:38:21.860Z,99036.50
2022-08-25T20:40:50.419Z,99038.59
2022-08-25T20:43:20.851Z,99031.31
2022-08-25T20:45:51.015Z,99034.53
2022-08-25T20:48:19.745Z,99036.94
2022-08-25T20:50:57.283Z,99038.19
2022-08-25T20:53:27.198Z,99038.53
2022-08-25T20:55:55.820Z,99037.00
2022-08-25T20:58:24.405Z,99036.16
2022-08-25T21:00:56.541Z,99037.00
2022-08-25T21:03:25.362Z,99039.69
2022-08-25T21:05:54.251Z,99042.47
2022-08-25T21:08:23.808Z,99035.06
2022-08-25T21:10:54.257Z,99036.75
2022-08-25T21:13:22.896Z,99025.72
2022-08-25T21:15:51.630Z,99031.50
2022-08-25T21:18:21.648Z,99028.59
2022-08-25T21:20:50.066Z,99025.75
2022-08-25T21:23:18.700Z,99020.53
2022-08-25T21:25:47.125Z,99016.03
2022-08-25T21:28:15.573Z,99017.13
2022-08-25T21:30:47.300Z,99021.50
2022-08-25T21:33:16.424Z,99017.09
2022-08-25T21:35:46.985Z,99017.91
2022-08-25T21:38:15.725Z,99013.50
2022-08-25T21:40:45.024Z,99016.75
2022-08-25T21:43:13.988Z,99008.13
2022-08-25T21:45:46.660Z,99012.19
2022-08-25T21:48:16.347Z,99018.28
2022-08-25T21:50:46.337Z,99010.75
2022-08-25T21:53:14.729Z,99010.31
2022-08-25T21:55:44.284Z,99005.31
2022-08-25T21:58:13.083Z,99010.53
2022-08-25T22:00:42.036Z,99000.31
2022-08-25T22:03:10.848Z,99007.84
2022-08-25T22:05:40.608Z,99008.88
2022-08-25T22:08:13.296Z,99010.53
2022-08-25T22:10:45.004Z,99014.53
2022-08-25T22:13:13.884Z,99005.75
2022-08-25T22:15:42.476Z,99000.69
2022-08-25T22:18:10.985Z,98997.97
2022-08-25T22:20:39.618Z,99001.81
2022-08-25T22:23:10.095Z,98997.03
2022-08-25T22:25:50.577Z,98996.56
2022-08-25T22:28:19.578Z,98997.13
2022-08-25T22:30:48.426Z,98999.72
2022-08-25T22:33:17.583Z,98993.59
2022-08-25T22:35:46.670Z,98996.19
2022-08-25T22:38:15.573Z,98989.94
2022-08-25T22:40:45.368Z,99001.00
2022-08-25T22:43:16.552Z,98999.31
2022-08-25T22:45:45.249Z,98992.06
2022-08-25T22:48:14.173Z,98988.66
2022-08-25T22:50:42.712Z,98985.28
2022-08-25T22:53:11.648Z,98979.19
2022-08-25T22:55:43.866Z,98988.00
2022-08-25T22:58:14.665Z,98980.66
2022-08-25T23:00:44.575Z,98984.66
2022-08-25T23:03:15.391Z,98981.53
2022-08-25T23:05:44.011Z,98984.09
2022-08-25T23:08:13.809Z,98987.50
2022-08-25T23:10:50.056Z,98980.69
2022-08-25T23:13:34.573Z,98974.19
2022-08-25T23:16:05.236Z,98980.53
2022-08-25T23:18:34.532Z,98975.03
2022-08-25T23:21:16.998Z,98975.03
2022-08-25T23:23:53.401Z,98983.97
2022-08-25T23:26:22.270Z,98974.19
2022-08-25T23:28:51.118Z,98975.72
2022-08-25T23:31:21.735Z,98965.94
2022-08-25T23:33:52.437Z,98967.22
2022-08-25T23:36:21.824Z,98966.50
2022-08-25T23:38:51.576Z,98966.13
2022-08-25T23:41:22.598Z,98969.22
2022-08-25T23:43:51.889Z,98967.78
2022-08-25T23:46:24.199Z,98968.94
2022-08-25T23:48:56.521Z,98965.69
2022-08-25T23:51:27.054Z,98971.53
2022-08-25T23:53:59.281Z,98971.66
2022-08-25T23:56:28.373Z,98958.22
2022-08-25T23:58:57.645Z,98966.69
